sensor_id;sensor_type;location;lat;lon;timestamp;P1;durP1;ratioP1;P2;durP2;ratioP2
63284;SDS011;49409;55.708;37.522;2022-10-30T00:00:27;3.83;;;2.15;;
63284;SDS011;49409;55.708;37.522;2022-10-30T00:02:53;4.68;;;2.53;;
63284;SDS011;49409;55.708;37.522;2022-10-30T00:05:44;4.55;;;2.80;;
63284;SDS011;49409;55.708;37.522;2022-10-30T00:08:14;5.63;;;3.03;;
63284;SDS011;49409;55.708;37.522;2022-10-30T00:10:42;5.38;;;3.15;;
63284;SDS011;49409;55.708;37.522;2022-10-30T00:13:08;6.10;;;3.45;;
63284;SDS011;49409;55.708;37.522;2022-10-30T00:15:35;4.43;;;2.80;;
63284;SDS011;49409;55.708;37.522;2022-10-30T00:18:01;5.68;;;2.72;;
63284;SDS011;49409;55.708;37.522;2022-10-30T00:20:27;5.10;;;2.65;;
63284;SDS011;49409;55.708;37.522;2022-10-30T00:22:52;6.82;;;3.08;;
63284;SDS011;49409;55.708;37.522;2022-10-30T00:25:18;5.45;;;2.75;;
63284;SDS011;49409;55.708;37.522;2022-10-30T00:27:43;4.70;;;2.58;;
63284;SDS011;49409;55.708;37.522;2022-10-30T00:30:09;4.47;;;2.47;;
63284;SDS011;49409;55.708;37.522;2022-10-30T00:32:35;5.57;;;2.65;;
63284;SDS011;49409;55.708;37.522;2022-10-30T00:35:01;5.28;;;2.38;;
63284;SDS011;49409;55.708;37.522;2022-10-30T00:37:27;5.70;;;2.67;;
63284;SDS011;49409;55.708;37.522;2022-10-30T00:39:53;5.70;;;2.58;;
63284;SDS011;49409;55.708;37.522;2022-10-30T00:42:18;4.90;;;2.47;;
63284;SDS011;49409;55.708;37.522;2022-10-30T00:47:15;5.80;;;2.80;;
63284;SDS011;49409;55.708;37.522;2022-10-30T00:49:51;4.78;;;2.25;;
63284;SDS011;49409;55.708;37.522;2022-10-30T00:52:22;4.75;;;2.38;;
63284;SDS011;49409;55.708;37.522;2022-10-30T00:54:51;4.38;;;2.33;;
63284;SDS011;49409;55.708;37.522;2022-10-30T00:57:18;6.88;;;2.67;;
63284;SDS011;49409;55.708;37.522;2022-10-30T00:59:44;4.97;;;2.60;;
63284;SDS011;49409;55.708;37.522;2022-10-30T01:02:11;6.22;;;2.75;;
63284;SDS011;49409;55.708;37.522;2022-10-30T01:04:36;4.53;;;2.42;;
63284;SDS011;49409;55.708;37.522;2022-10-30T01:07:08;5.65;;;2.92;;
63284;SDS011;49409;55.708;37.522;2022-10-30T01:09:37;5.07;;;2.72;;
63284;SDS011;49409;55.708;37.522;2022-10-30T01:12:03;4.97;;;2.55;;
63284;SDS011;49409;55.708;37.522;2022-10-30T01:14:29;5.60;;;3.20;;
63284;SDS011;49409;55.708;37.522;2022-10-30T01:17:15;8.45;;;3.83;;
63284;SDS011;49409;55.708;37.522;2022-10-30T01:19:55;5.05;;;2.80;;
63284;SDS011;49409;55.708;37.522;2022-10-30T01:33:44;7.53;;;3.17;;
63284;SDS011;49409;55.708;37.522;2022-10-30T01:36:35;6.75;;;3.13;;
63284;SDS011;49409;55.708;37.522;2022-10-30T01:39:14;6.28;;;3.15;;
63284;SDS011;49409;55.708;37.522;2022-10-30T01:41:44;7.43;;;2.88;;
63284;SDS011;49409;55.708;37.522;2022-10-30T01:44:13;4.95;;;2.85;;
63284;SDS011;49409;55.708;37.522;2022-10-30T01:49:50;4.00;;;2.20;;
63284;SDS011;49409;55.708;37.522;2022-10-30T01:52:28;4.88;;;2.22;;
63284;SDS011;49409;55.708;37.522;2022-10-30T01:58:27;7.75;;;2.92;;
63284;SDS011;49409;55.708;37.522;2022-10-30T02:01:03;5.25;;;3.17;;
63284;SDS011;49409;55.708;37.522;2022-10-30T02:03:29;6.05;;;2.92;;
63284;SDS011;49409;55.708;37.522;2022-10-30T02:05:55;5.68;;;2.50;;
63284;SDS011;49409;55.708;37.522;2022-10-30T02:08:20;6.13;;;2.90;;
63284;SDS011;49409;55.708;37.522;2022-10-30T02:10:46;5.57;;;2.60;;
63284;SDS011;49409;55.708;37.522;2022-10-30T02:13:14;6.93;;;3.08;;
63284;SDS011;49409;55.708;37.522;2022-10-30T02:15:40;6.18;;;2.40;;
63284;SDS011;49409;55.708;37.522;2022-10-30T02:18:07;6.85;;;3.00;;
63284;SDS011;49409;55.708;37.522;2022-10-30T02:20:33;4.93;;;2.50;;
63284;SDS011;49409;55.708;37.522;2022-10-30T02:22:59;5.85;;;2.15;;
63284;SDS011;49409;55.708;37.522;2022-10-30T02:25:25;6.03;;;2.17;;
63284;SDS011;49409;55.708;37.522;2022-10-30T02:27:50;4.25;;;2.45;;
63284;SDS011;49409;55.708;37.522;2022-10-30T02:30:16;6.47;;;2.67;;
63284;SDS011;49409;55.708;37.522;2022-10-30T02:32:41;4.60;;;2.00;;
63284;SDS011;49409;55.708;37.522;2022-10-30T02:35:07;4.82;;;2.10;;
63284;SDS011;49409;55.708;37.522;2022-10-30T02:37:33;4.38;;;2.20;;
63284;SDS011;49409;55.708;37.522;2022-10-30T02:40:00;5.53;;;1.70;;
63284;SDS011;49409;55.708;37.522;2022-10-30T02:42:27;3.53;;;1.58;;
63284;SDS011;49409;55.708;37.522;2022-10-30T02:44:52;4.95;;;2.55;;
63284;SDS011;49409;55.708;37.522;2022-10-30T02:47:18;3.63;;;1.70;;
63284;SDS011;49409;55.708;37.522;2022-10-30T02:49:43;4.97;;;1.95;;
63284;SDS011;49409;55.708;37.522;2022-10-30T02:52:09;3.67;;;1.98;;
63284;SDS011;49409;55.708;37.522;2022-10-30T02:54:34;5.55;;;2.30;;
63284;SDS011;49409;55.708;37.522;2022-10-30T02:57:00;4.95;;;1.90;;
63284;SDS011;49409;55.708;37.522;2022-10-30T02:59:26;3.38;;;1.75;;
63284;SDS011;49409;55.708;37.522;2022-10-30T03:01:51;3.75;;;1.58;;
63284;SDS011;49409;55.708;37.522;2022-10-30T03:04:17;4.28;;;1.85;;
63284;SDS011;49409;55.708;37.522;2022-10-30T03:06:43;3.53;;;1.60;;
63284;SDS011;49409;55.708;37.522;2022-10-30T03:09:08;5.28;;;2.13;;
63284;SDS011;49409;55.708;37.522;2022-10-30T03:11:34;3.13;;;2.00;;
63284;SDS011;49409;55.708;37.522;2022-10-30T03:13:59;4.60;;;1.60;;
63284;SDS011;49409;55.708;37.522;2022-10-30T03:16:25;5.32;;;2.00;;
63284;SDS011;49409;55.708;37.522;2022-10-30T03:18:56;4.15;;;1.70;;
63284;SDS011;49409;55.708;37.522;2022-10-30T03:21:23;3.10;;;1.80;;
63284;SDS011;49409;55.708;37.522;2022-10-30T03:23:50;4.40;;;1.75;;
63284;SDS011;49409;55.708;37.522;2022-10-30T03:26:17;5.97;;;1.80;;
63284;SDS011;49409;55.708;37.522;2022-10-30T03:28:43;2.45;;;1.45;;
63284;SDS011;49409;55.708;37.522;2022-10-30T03:31:10;3.78;;;1.73;;
63284;SDS011;49409;55.708;37.522;2022-10-30T03:33:37;5.13;;;2.00;;
63284;SDS011;49409;55.708;37.522;2022-10-30T03:36:04;4.72;;;1.98;;
63284;SDS011;49409;55.708;37.522;2022-10-30T03:38:33;3.17;;;1.73;;
63284;SDS011;49409;55.708;37.522;2022-10-30T03:40:59;3.92;;;1.75;;
63284;SDS011;49409;55.708;37.522;2022-10-30T03:43:24;4.30;;;1.92;;
63284;SDS011;49409;55.708;37.522;2022-10-30T03:45:51;3.90;;;1.70;;
63284;SDS011;49409;55.708;37.522;2022-10-30T03:48:20;4.25;;;1.70;;
63284;SDS011;49409;55.708;37.522;2022-10-30T03:50:47;3.38;;;1.60;;
63284;SDS011;49409;55.708;37.522;2022-10-30T03:53:13;1.83;;;1.40;;
63284;SDS011;49409;55.708;37.522;2022-10-30T03:55:39;2.08;;;1.27;;
63284;SDS011;49409;55.708;37.522;2022-10-30T03:58:05;2.88;;;1.35;;
63284;SDS011;49409;55.708;37.522;2022-10-30T04:00:31;3.05;;;1.40;;
63284;SDS011;49409;55.708;37.522;2022-10-30T04:02:57;2.28;;;1.27;;
63284;SDS011;49409;55.708;37.522;2022-10-30T04:05:23;2.65;;;1.40;;
63284;SDS011;49409;55.708;37.522;2022-10-30T04:07:54;3.30;;;1.50;;
63284;SDS011;49409;55.708;37.522;2022-10-30T04:10:23;3.40;;;1.75;;
63284;SDS011;49409;55.708;37.522;2022-10-30T04:12:49;2.70;;;1.50;;
63284;SDS011;49409;55.708;37.522;2022-10-30T04:15:15;2.70;;;1.15;;
63284;SDS011;49409;55.708;37.522;2022-10-30T04:17:46;2.08;;;1.20;;
63284;SDS011;49409;55.708;37.522;2022-10-30T04:20:13;4.75;;;1.30;;
63284;SDS011;49409;55.708;37.522;2022-10-30T04:22:38;3.58;;;1.58;;
63284;SDS011;49409;55.708;37.522;2022-10-30T04:25:04;3.15;;;1.30;;
63284;SDS011;49409;55.708;37.522;2022-10-30T04:27:30;2.83;;;1.48;;
63284;SDS011;49409;55.708;37.522;2022-10-30T04:29:55;3.15;;;1.23;;
63284;SDS011;49409;55.708;37.522;2022-10-30T04:32:21;2.55;;;1.40;;
63284;SDS011;49409;55.708;37.522;2022-10-30T04:34:46;3.13;;;1.20;;
63284;SDS011;49409;55.708;37.522;2022-10-30T04:37:12;1.67;;;1.08;;
63284;SDS011;49409;55.708;37.522;2022-10-30T04:39:37;3.25;;;1.00;;
63284;SDS011;49409;55.708;37.522;2022-10-30T04:42:03;2.05;;;1.00;;
63284;SDS011;49409;55.708;37.522;2022-10-30T04:44:28;4.47;;;1.08;;
63284;SDS011;49409;55.708;37.522;2022-10-30T04:46:54;1.05;;;0.82;;
63284;SDS011;49409;55.708;37.522;2022-10-30T04:49:19;2.78;;;0.90;;
63284;SDS011;49409;55.708;37.522;2022-10-30T04:51:45;3.35;;;1.15;;
63284;SDS011;49409;55.708;37.522;2022-10-30T04:54:11;2.67;;;0.90;;
63284;SDS011;49409;55.708;37.522;2022-10-30T04:56:36;2.08;;;1.02;;
63284;SDS011;49409;55.708;37.522;2022-10-30T04:59:02;1.67;;;1.15;;
63284;SDS011;49409;55.708;37.522;2022-10-30T05:01:28;2.85;;;1.00;;
63284;SDS011;49409;55.708;37.522;2022-10-30T05:03:54;2.78;;;0.70;;
63284;SDS011;49409;55.708;37.522;2022-10-30T05:06:26;0.90;;;0.70;;
63284;SDS011;49409;55.708;37.522;2022-10-30T05:08:56;2.72;;;1.10;;
63284;SDS011;49409;55.708;37.522;2022-10-30T05:11:22;0.80;;;0.60;;
63284;SDS011;49409;55.708;37.522;2022-10-30T05:13:47;3.28;;;1.25;;
63284;SDS011;49409;55.708;37.522;2022-10-30T05:16:13;3.90;;;0.80;;
63284;SDS011;49409;55.708;37.522;2022-10-30T05:18:38;3.70;;;1.05;;
63284;SDS011;49409;55.708;37.522;2022-10-30T05:21:04;3.97;;;1.08;;
63284;SDS011;49409;55.708;37.522;2022-10-30T05:23:30;2.03;;;0.88;;
63284;SDS011;49409;55.708;37.522;2022-10-30T05:25:56;5.18;;;1.02;;
63284;SDS011;49409;55.708;37.522;2022-10-30T05:28:23;1.60;;;1.30;;
63284;SDS011;49409;55.708;37.522;2022-10-30T05:30:51;1.73;;;0.70;;
63284;SDS011;49409;55.708;37.522;2022-10-30T05:33:17;2.10;;;0.68;;
63284;SDS011;49409;55.708;37.522;2022-10-30T05:35:43;1.95;;;0.88;;
63284;SDS011;49409;55.708;37.522;2022-10-30T05:38:09;0.70;;;0.70;;
63284;SDS011;49409;55.708;37.522;2022-10-30T05:40:35;3.63;;;1.10;;
63284;SDS011;49409;55.708;37.522;2022-10-30T05:43:01;1.95;;;0.95;;
63284;SDS011;49409;55.708;37.522;2022-10-30T05:45:26;2.20;;;0.88;;
63284;SDS011;49409;55.708;37.522;2022-10-30T05:47:55;1.83;;;0.68;;
63284;SDS011;49409;55.708;37.522;2022-10-30T05:50:25;3.38;;;0.95;;
63284;SDS011;49409;55.708;37.522;2022-10-30T05:52:59;1.42;;;0.73;;
63284;SDS011;49409;55.708;37.522;2022-10-30T05:55:26;1.40;;;0.80;;
63284;SDS011;49409;55.708;37.522;2022-10-30T05:58:02;2.90;;;0.90;;
63284;SDS011;49409;55.708;37.522;2022-10-30T06:00:30;4.97;;;0.93;;
63284;SDS011;49409;55.708;37.522;2022-10-30T06:02:58;2.83;;;0.70;;
63284;SDS011;49409;55.708;37.522;2022-10-30T06:05:24;1.85;;;0.55;;
63284;SDS011;49409;55.708;37.522;2022-10-30T06:07:53;0.73;;;0.73;;
63284;SDS011;49409;55.708;37.522;2022-10-30T06:10:20;1.98;;;0.90;;
63284;SDS011;49409;55.708;37.522;2022-10-30T06:12:55;2.05;;;0.60;;
63284;SDS011;49409;55.708;37.522;2022-10-30T06:15:22;2.15;;;0.80;;
63284;SDS011;49409;55.708;37.522;2022-10-30T06:17:48;0.52;;;0.45;;
63284;SDS011;49409;55.708;37.522;2022-10-30T06:20:14;1.45;;;0.65;;
63284;SDS011;49409;55.708;37.522;2022-10-30T06:22:40;3.05;;;0.52;;
63284;SDS011;49409;55.708;37.522;2022-10-30T06:25:06;1.48;;;0.50;;
63284;SDS011;49409;55.708;37.522;2022-10-30T06:27:34;1.58;;;0.50;;
63284;SDS011;49409;55.708;37.522;2022-10-30T06:30:00;0.55;;;0.43;;
63284;SDS011;49409;55.708;37.522;2022-10-30T06:32:25;2.35;;;0.60;;
63284;SDS011;49409;55.708;37.522;2022-10-30T06:34:51;0.77;;;0.40;;
63284;SDS011;49409;55.708;37.522;2022-10-30T06:37:16;0.52;;;0.38;;
63284;SDS011;49409;55.708;37.522;2022-10-30T06:39:42;1.63;;;0.38;;
63284;SDS011;49409;55.708;37.522;2022-10-30T06:42:07;0.45;;;0.40;;
63284;SDS011;49409;55.708;37.522;2022-10-30T06:44:33;0.47;;;0.40;;
63284;SDS011;49409;55.708;37.522;2022-10-30T06:46:58;1.48;;;0.40;;
63284;SDS011;49409;55.708;37.522;2022-10-30T06:49:24;0.63;;;0.30;;
63284;SDS011;49409;55.708;37.522;2022-10-30T06:51:49;1.20;;;0.40;;
63284;SDS011;49409;55.708;37.522;2022-10-30T06:54:15;0.20;;;0.13;;
63284;SDS011;49409;55.708;37.522;2022-10-30T06:56:40;1.05;;;0.47;;
63284;SDS011;49409;55.708;37.522;2022-10-30T06:59:06;0.30;;;0.20;;
63284;SDS011;49409;55.708;37.522;2022-10-30T07:01:33;0.55;;;0.20;;
63284;SDS011;49409;55.708;37.522;2022-10-30T07:03:59;1.45;;;0.40;;
63284;SDS011;49409;55.708;37.522;2022-10-30T07:06:24;0.65;;;0.20;;
63284;SDS011;49409;55.708;37.522;2022-10-30T07:08:50;1.42;;;0.47;;
63284;SDS011;49409;55.708;37.522;2022-10-30T07:11:15;1.20;;;0.45;;
63284;SDS011;49409;55.708;37.522;2022-10-30T07:13:41;1.20;;;0.40;;
63284;SDS011;49409;55.708;37.522;2022-10-30T07:16:06;0.40;;;0.40;;
63284;SDS011;49409;55.708;37.522;2022-10-30T07:18:32;0.55;;;0.30;;
63284;SDS011;49409;55.708;37.522;2022-10-30T07:20:57;0.20;;;0.17;;
63284;SDS011;49409;55.708;37.522;2022-10-30T07:23:23;1.52;;;0.45;;
63284;SDS011;49409;55.708;37.522;2022-10-30T07:25:49;1.35;;;0.55;;
63284;SDS011;49409;55.708;37.522;2022-10-30T07:28:14;0.75;;;0.40;;
63284;SDS011;49409;55.708;37.522;2022-10-30T07:30:40;0.30;;;0.30;;
63284;SDS011;49409;55.708;37.522;2022-10-30T07:33:05;1.35;;;0.20;;
63284;SDS011;49409;55.708;37.522;2022-10-30T07:35:34;0.65;;;0.43;;
63284;SDS011;49409;55.708;37.522;2022-10-30T07:38:04;0.90;;;0.40;;
63284;SDS011;49409;55.708;37.522;2022-10-30T07:40:31;0.70;;;0.25;;
63284;SDS011;49409;55.708;37.522;2022-10-30T07:43:09;0.47;;;0.20;;
63284;SDS011;49409;55.708;37.522;2022-10-30T07:45:37;0.68;;;0.28;;
63284;SDS011;49409;55.708;37.522;2022-10-30T07:48:03;0.68;;;0.20;;
63284;SDS011;49409;55.708;37.522;2022-10-30T07:50:30;0.90;;;0.70;;
63284;SDS011;49409;55.708;37.522;2022-10-30T07:52:56;1.13;;;0.30;;
63284;SDS011;49409;55.708;37.522;2022-10-30T07:55:21;1.13;;;0.20;;
63284;SDS011;49409;55.708;37.522;2022-10-30T07:57:47;1.23;;;0.65;;
63284;SDS011;49409;55.708;37.522;2022-10-30T08:00:13;0.80;;;0.30;;
63284;SDS011;49409;55.708;37.522;2022-10-30T08:02:39;0.85;;;0.30;;
63284;SDS011;49409;55.708;37.522;2022-10-30T08:05:05;0.65;;;0.30;;
63284;SDS011;49409;55.708;37.522;2022-10-30T08:07:31;0.85;;;0.30;;
63284;SDS011;49409;55.708;37.522;2022-10-30T08:09:58;0.80;;;0.35;;
63284;SDS011;49409;55.708;37.522;2022-10-30T08:12:24;1.60;;;0.57;;
63284;SDS011;49409;55.708;37.522;2022-10-30T08:14:51;1.75;;;0.50;;
63284;SDS011;49409;55.708;37.522;2022-10-30T08:17:17;0.32;;;0.32;;
63284;SDS011;49409;55.708;37.522;2022-10-30T08:19:43;1.48;;;0.30;;
63284;SDS011;49409;55.708;37.522;2022-10-30T08:22:09;0.75;;;0.38;;
63284;SDS011;49409;55.708;37.522;2022-10-30T08:24:35;0.30;;;0.30;;
63284;SDS011;49409;55.708;37.522;2022-10-30T08:27:00;0.47;;;0.28;;
63284;SDS011;49409;55.708;37.522;2022-10-30T08:29:26;0.20;;;0.20;;
63284;SDS011;49409;55.708;37.522;2022-10-30T08:31:52;1.52;;;0.30;;
63284;SDS011;49409;55.708;37.522;2022-10-30T08:34:17;0.68;;;0.30;;
63284;SDS011;49409;55.708;37.522;2022-10-30T08:36:43;0.77;;;0.40;;
63284;SDS011;49409;55.708;37.522;2022-10-30T08:39:08;0.35;;;0.35;;
63284;SDS011;49409;55.708;37.522;2022-10-30T08:41:34;0.70;;;0.32;;
63284;SDS011;49409;55.708;37.522;2022-10-30T08:43:59;1.20;;;0.30;;
63284;SDS011;49409;55.708;37.522;2022-10-30T08:46:25;1.13;;;0.47;;
63284;SDS011;49409;55.708;37.522;2022-10-30T08:48:51;1.38;;;0.73;;
63284;SDS011;49409;55.708;37.522;2022-10-30T08:51:16;2.70;;;0.60;;
63284;SDS011;49409;55.708;37.522;2022-10-30T08:53:42;0.75;;;0.40;;
63284;SDS011;49409;55.708;37.522;2022-10-30T08:56:07;1.20;;;0.40;;
63284;SDS011;49409;55.708;37.522;2022-10-30T08:58:33;0.45;;;0.30;;
63284;SDS011;49409;55.708;37.522;2022-10-30T09:00:58;0.28;;;0.20;;
63284;SDS011;49409;55.708;37.522;2022-10-30T09:03:24;0.52;;;0.35;;
63284;SDS011;49409;55.708;37.522;2022-10-30T09:05:49;1.48;;;0.40;;
63284;SDS011;49409;55.708;37.522;2022-10-30T09:08:15;1.25;;;0.30;;
63284;SDS011;49409;55.708;37.522;2022-10-30T09:10:40;1.17;;;0.38;;
63284;SDS011;49409;55.708;37.522;2022-10-30T09:13:06;2.20;;;0.47;;
63284;SDS011;49409;55.708;37.522;2022-10-30T09:15:33;0.38;;;0.22;;
63284;SDS011;49409;55.708;37.522;2022-10-30T09:18:00;0.63;;;0.40;;
63284;SDS011;49409;55.708;37.522;2022-10-30T09:20:28;1.60;;;0.40;;
63284;SDS011;49409;55.708;37.522;2022-10-30T09:22:54;1.65;;;0.40;;
63284;SDS011;49409;55.708;37.522;2022-10-30T09:25:20;0.65;;;0.40;;
63284;SDS011;49409;55.708;37.522;2022-10-30T09:27:46;2.05;;;0.60;;
63284;SDS011;49409;55.708;37.522;2022-10-30T09:30:12;1.58;;;0.40;;
63284;SDS011;49409;55.708;37.522;2022-10-30T09:32:38;2.40;;;0.50;;
63284;SDS011;49409;55.708;37.522;2022-10-30T09:35:04;1.02;;;0.30;;
63284;SDS011;49409;55.708;37.522;2022-10-30T09:37:36;1.85;;;0.50;;
63284;SDS011;49409;55.708;37.522;2022-10-30T09:40:03;2.40;;;0.65;;
63284;SDS011;49409;55.708;37.522;2022-10-30T09:42:41;1.08;;;0.30;;
63284;SDS011;49409;55.708;37.522;2022-10-30T09:50:45;1.02;;;0.40;;
63284;SDS011;49409;55.708;37.522;2022-10-30T09:56:26;1.17;;;0.43;;
63284;SDS011;49409;55.708;37.522;2022-10-30T09:59:16;2.63;;;0.77;;
63284;SDS011;49409;55.708;37.522;2022-10-30T10:04:25;0.30;;;0.30;;
63284;SDS011;49409;55.708;37.522;2022-10-30T10:07:06;3.17;;;0.73;;
63284;SDS011;49409;55.708;37.522;2022-10-30T10:09:39;2.55;;;0.50;;
63284;SDS011;49409;55.708;37.522;2022-10-30T10:12:10;1.33;;;0.40;;
63284;SDS011;49409;55.708;37.522;2022-10-30T10:14:51;1.27;;;0.90;;
63284;SDS011;49409;55.708;37.522;2022-10-30T10:17:29;0.82;;;0.60;;
63284;SDS011;49409;55.708;37.522;2022-10-30T10:19:59;1.15;;;0.57;;
63284;SDS011;49409;55.708;37.522;2022-10-30T10:22:29;2.40;;;0.50;;
63284;SDS011;49409;55.708;37.522;2022-10-30T10:25:10;0.77;;;0.50;;
63284;SDS011;49409;55.708;37.522;2022-10-30T10:30:45;0.95;;;0.38;;
63284;SDS011;49409;55.708;37.522;2022-10-30T10:33:37;0.82;;;0.28;;
63284;SDS011;49409;55.708;37.522;2022-10-30T10:45:15;0.57;;;0.20;;
63284;SDS011;49409;55.708;37.522;2022-10-30T10:47:53;1.55;;;0.40;;
63284;SDS011;49409;55.708;37.522;2022-10-30T10:50:26;1.05;;;0.20;;
63284;SDS011;49409;55.708;37.522;2022-10-30T10:52:56;1.80;;;0.30;;
63284;SDS011;49409;55.708;37.522;2022-10-30T10:55:28;0.90;;;0.43;;
63284;SDS011;49409;55.708;37.522;2022-10-30T10:57:58;1.27;;;0.52;;
63284;SDS011;49409;55.708;37.522;2022-10-30T11:00:31;0.50;;;0.20;;
63284;SDS011;49409;55.708;37.522;2022-10-30T11:02:59;5.20;;;0.73;;
63284;SDS011;49409;55.708;37.522;2022-10-30T11:06:00;1.45;;;0.50;;
63284;SDS011;49409;55.708;37.522;2022-10-30T11:08:41;0.40;;;0.20;;
63284;SDS011;49409;55.708;37.522;2022-10-30T11:11:07;1.02;;;0.20;;
63284;SDS011;49409;55.708;37.522;2022-10-30T11:13:36;1.83;;;0.55;;
63284;SDS011;49409;55.708;37.522;2022-10-30T11:18:31;2.65;;;0.55;;
63284;SDS011;49409;55.708;37.522;2022-10-30T11:21:17;2.63;;;0.50;;
63284;SDS011;49409;55.708;37.522;2022-10-30T11:23:46;0.95;;;0.30;;
63284;SDS011;49409;55.708;37.522;2022-10-30T11:28:57;0.50;;;0.20;;
63284;SDS011;49409;55.708;37.522;2022-10-30T11:31:38;0.68;;;0.25;;
63284;SDS011;49409;55.708;37.522;2022-10-30T11:36:46;0.77;;;0.40;;
63284;SDS011;49409;55.708;37.522;2022-10-30T11:39:23;1.30;;;0.65;;
63284;SDS011;49409;55.708;37.522;2022-10-30T11:44:41;2.17;;;0.43;;
63284;SDS011;49409;55.708;37.522;2022-10-30T11:47:09;1.20;;;0.30;;
63284;SDS011;49409;55.708;37.522;2022-10-30T11:49:55;0.63;;;0.40;;
63284;SDS011;49409;55.708;37.522;2022-10-30T11:52:23;1.80;;;0.40;;
63284;SDS011;49409;55.708;37.522;2022-10-30T11:55:00;1.00;;;0.38;;
63284;SDS011;49409;55.708;37.522;2022-10-30T11:59:59;0.28;;;0.28;;
63284;SDS011;49409;55.708;37.522;2022-10-30T12:02:31;0.43;;;0.43;;
63284;SDS011;49409;55.708;37.522;2022-10-30T12:05:13;0.85;;;0.40;;
63284;SDS011;49409;55.708;37.522;2022-10-30T12:08:18;1.00;;;0.70;;
63284;SDS011;49409;55.708;37.522;2022-10-30T12:13:20;0.40;;;0.40;;
63284;SDS011;49409;55.708;37.522;2022-10-30T12:16:05;0.47;;;0.40;;
63284;SDS011;49409;55.708;37.522;2022-10-30T12:18:38;1.35;;;0.47;;
63284;SDS011;49409;55.708;37.522;2022-10-30T12:21:04;3.08;;;0.55;;
63284;SDS011;49409;55.708;37.522;2022-10-30T12:23:30;1.95;;;0.85;;
63284;SDS011;49409;55.708;37.522;2022-10-30T12:25:59;0.55;;;0.22;;
63284;SDS011;49409;55.708;37.522;2022-10-30T12:28:29;1.02;;;0.40;;
63284;SDS011;49409;55.708;37.522;2022-10-30T12:30:57;1.58;;;0.50;;
63284;SDS011;49409;55.708;37.522;2022-10-30T12:33:36;1.67;;;0.40;;
63284;SDS011;49409;55.708;37.522;2022-10-30T12:36:27;1.55;;;0.85;;
63284;SDS011;49409;55.708;37.522;2022-10-30T12:38:58;2.25;;;0.82;;
63284;SDS011;49409;55.708;37.522;2022-10-30T12:41:34;1.13;;;0.50;;
63284;SDS011;49409;55.708;37.522;2022-10-30T12:44:10;0.73;;;0.47;;
63284;SDS011;49409;55.708;37.522;2022-10-30T12:47:00;0.50;;;0.20;;
63284;SDS011;49409;55.708;37.522;2022-10-30T12:49:34;1.33;;;0.38;;
63284;SDS011;49409;55.708;37.522;2022-10-30T12:55:16;1.08;;;0.30;;
63284;SDS011;49409;55.708;37.522;2022-10-30T12:58:00;0.20;;;0.20;;
63284;SDS011;49409;55.708;37.522;2022-10-30T13:00:41;0.40;;;0.40;;
63284;SDS011;49409;55.708;37.522;2022-10-30T13:03:29;1.00;;;0.40;;
63284;SDS011;49409;55.708;37.522;2022-10-30T13:05:58;0.32;;;0.15;;
63284;SDS011;49409;55.708;37.522;2022-10-30T13:08:31;0.35;;;0.30;;
63284;SDS011;49409;55.708;37.522;2022-10-30T13:13:42;1.65;;;0.40;;
63284;SDS011;49409;55.708;37.522;2022-10-30T13:18:40;0.52;;;0.43;;
63284;SDS011;49409;55.708;37.522;2022-10-30T13:24:09;2.95;;;0.55;;
63284;SDS011;49409;55.708;37.522;2022-10-30T13:26:53;0.38;;;0.20;;
63284;SDS011;49409;55.708;37.522;2022-10-30T13:29:30;1.15;;;0.40;;
63284;SDS011;49409;55.708;37.522;2022-10-30T13:34:56;0.15;;;0.10;;
63284;SDS011;49409;55.708;37.522;2022-10-30T13:37:41;0.55;;;0.40;;
63284;SDS011;49409;55.708;37.522;2022-10-30T13:42:47;0.70;;;0.30;;
63284;SDS011;49409;55.708;37.522;2022-10-30T13:45:43;1.17;;;0.40;;
63284;SDS011;49409;55.708;37.522;2022-10-30T13:56:44;2.25;;;0.47;;
63284;SDS011;49409;55.708;37.522;2022-10-30T14:07:51;0.68;;;0.45;;
63284;SDS011;49409;55.708;37.522;2022-10-30T14:10:43;0.75;;;0.38;;
63284;SDS011;49409;55.708;37.522;2022-10-30T14:13:14;1.75;;;0.50;;
63284;SDS011;49409;55.708;37.522;2022-10-30T14:15:45;1.20;;;0.43;;
63284;SDS011;49409;55.708;37.522;2022-10-30T14:20:41;1.23;;;0.50;;
63284;SDS011;49409;55.708;37.522;2022-10-30T14:28:33;0.88;;;0.40;;
63284;SDS011;49409;55.708;37.522;2022-10-30T14:33:51;1.42;;;0.57;;
63284;SDS011;49409;55.708;37.522;2022-10-30T14:38:59;1.67;;;0.70;;
63284;SDS011;49409;55.708;37.522;2022-10-30T14:46:41;1.13;;;0.52;;
63284;SDS011;49409;55.708;37.522;2022-10-30T14:49:25;2.50;;;0.70;;
63284;SDS011;49409;55.708;37.522;2022-10-30T15:08:26;1.42;;;0.40;;
63284;SDS011;49409;55.708;37.522;2022-10-30T15:13:55;0.63;;;0.60;;
63284;SDS011;49409;55.708;37.522;2022-10-30T15:16:25;2.58;;;0.88;;
63284;SDS011;49409;55.708;37.522;2022-10-30T15:19:00;2.25;;;0.63;;
63284;SDS011;49409;55.708;37.522;2022-10-30T15:21:30;0.35;;;0.32;;
63284;SDS011;49409;55.708;37.522;2022-10-30T15:23:59;1.50;;;0.60;;
63284;SDS011;49409;55.708;37.522;2022-10-30T15:26:35;2.35;;;0.52;;
63284;SDS011;49409;55.708;37.522;2022-10-30T15:29:03;2.17;;;1.08;;
63284;SDS011;49409;55.708;37.522;2022-10-30T15:31:31;3.13;;;0.98;;
63284;SDS011;49409;55.708;37.522;2022-10-30T15:33:57;2.55;;;0.90;;
63284;SDS011;49409;55.708;37.522;2022-10-30T15:36:24;1.05;;;0.93;;
63284;SDS011;49409;55.708;37.522;2022-10-30T15:39:12;3.22;;;1.15;;
63284;SDS011;49409;55.708;37.522;2022-10-30T15:41:43;3.65;;;1.05;;
63284;SDS011;49409;55.708;37.522;2022-10-30T15:44:13;1.75;;;0.85;;
63284;SDS011;49409;55.708;37.522;2022-10-30T15:47:01;1.65;;;0.85;;
63284;SDS011;49409;55.708;37.522;2022-10-30T15:49:35;2.17;;;0.98;;
63284;SDS011;49409;55.708;37.522;2022-10-30T15:52:04;2.67;;;1.25;;
63284;SDS011;49409;55.708;37.522;2022-10-30T15:54:44;1.33;;;0.80;;
63284;SDS011;49409;55.708;37.522;2022-10-30T15:57:15;4.13;;;0.95;;
63284;SDS011;49409;55.708;37.522;2022-10-30T15:59:50;1.90;;;0.60;;
63284;SDS011;49409;55.708;37.522;2022-10-30T16:02:21;2.55;;;0.93;;
63284;SDS011;49409;55.708;37.522;2022-10-30T16:04:48;2.42;;;0.90;;
63284;SDS011;49409;55.708;37.522;2022-10-30T16:07:21;0.43;;;0.43;;
63284;SDS011;49409;55.708;37.522;2022-10-30T16:09:54;1.40;;;0.70;;
63284;SDS011;49409;55.708;37.522;2022-10-30T16:12:25;1.60;;;0.60;;
63284;SDS011;49409;55.708;37.522;2022-10-30T16:14:54;0.77;;;0.73;;
63284;SDS011;49409;55.708;37.522;2022-10-30T16:17:20;2.75;;;1.00;;
63284;SDS011;49409;55.708;37.522;2022-10-30T16:19:48;2.58;;;1.10;;
63284;SDS011;49409;55.708;37.522;2022-10-30T16:22:19;2.03;;;0.70;;
63284;SDS011;49409;55.708;37.522;2022-10-30T16:24:50;0.55;;;0.55;;
63284;SDS011;49409;55.708;37.522;2022-10-30T16:27:18;1.08;;;0.65;;
63284;SDS011;49409;55.708;37.522;2022-10-30T16:29:45;0.50;;;0.50;;
63284;SDS011;49409;55.708;37.522;2022-10-30T16:32:15;1.35;;;0.57;;
63284;SDS011;49409;55.708;37.522;2022-10-30T16:34:43;1.10;;;0.80;;
63284;SDS011;49409;55.708;37.522;2022-10-30T16:37:52;1.23;;;0.40;;
63284;SDS011;49409;55.708;37.522;2022-10-30T16:42:37;1.10;;;0.52;;
63284;SDS011;49409;55.708;37.522;2022-10-30T16:47:37;1.58;;;0.65;;
63284;SDS011;49409;55.708;37.522;2022-10-30T16:50:09;0.93;;;0.43;;
63284;SDS011;49409;55.708;37.522;2022-10-30T16:52:39;2.08;;;0.73;;
63284;SDS011;49409;55.708;37.522;2022-10-30T16:55:07;1.10;;;0.70;;
63284;SDS011;49409;55.708;37.522;2022-10-30T16:57:47;1.13;;;0.55;;
63284;SDS011;49409;55.708;37.522;2022-10-30T17:02:46;1.85;;;0.80;;
63284;SDS011;49409;55.708;37.522;2022-10-30T17:05:35;0.60;;;0.43;;